sensor_id;sensor_type;location;lat;lon;timestamp;P1;durP1;ratioP1;P2;durP2;ratioP2
24813;SDS011;12904;50.088;11.414;2022-10-23T00:00:36;12.10;;;8.75;;
24813;SDS011;12904;50.088;11.414;2022-10-23T00:03:02;10.95;;;9.45;;
24813;SDS011;12904;50.088;11.414;2022-10-23T00:05:27;11.20;;;10.10;;
24813;SDS011;12904;50.088;11.414;2022-10-23T00:07:54;15.75;;;10.13;;
24813;SDS011;12904;50.088;11.414;2022-10-23T00:10:22;14.20;;;11.15;;
24813;SDS011;12904;50.088;11.414;2022-10-23T00:12:49;18.02;;;12.55;;
24813;SDS011;12904;50.088;11.414;2022-10-23T00:15:16;14.27;;;12.77;;
24813;SDS011;12904;50.088;11.414;2022-10-23T00:17:43;18.63;;;11.88;;
24813;SDS011;12904;50.088;11.414;2022-10-23T00:20:09;13.88;;;11.93;;
24813;SDS011;12904;50.088;11.414;2022-10-23T00:22:36;11.90;;;10.80;;
24813;SDS011;12904;50.088;11.414;2022-10-23T00:25:03;17.25;;;12.32;;
24813;SDS011;12904;50.088;11.414;2022-10-23T00:27:30;16.40;;;11.90;;
24813;SDS011;12904;50.088;11.414;2022-10-23T00:29:56;13.25;;;10.43;;
24813;SDS011;12904;50.088;11.414;2022-10-23T00:32:21;17.48;;;11.93;;
24813;SDS011;12904;50.088;11.414;2022-10-23T00:34:47;12.52;;;11.20;;
24813;SDS011;12904;50.088;11.414;2022-10-23T00:37:13;17.38;;;12.05;;
24813;SDS011;12904;50.088;11.414;2022-10-23T00:39:38;12.68;;;11.38;;
24813;SDS011;12904;50.088;11.414;2022-10-23T00:42:04;19.20;;;11.05;;
24813;SDS011;12904;50.088;11.414;2022-10-23T00:46:56;12.55;;;9.15;;
24813;SDS011;12904;50.088;11.414;2022-10-23T00:49:22;22.75;;;8.70;;
24813;SDS011;12904;50.088;11.414;2022-10-23T00:51:59;11.75;;;9.45;;
24813;SDS011;12904;50.088;11.414;2022-10-23T00:54:30;15.27;;;9.23;;
24813;SDS011;12904;50.088;11.414;2022-10-23T00:56:59;10.23;;;9.18;;
24813;SDS011;12904;50.088;11.414;2022-10-23T00:59:27;10.20;;;9.30;;
24813;SDS011;12904;50.088;11.414;2022-10-23T01:01:53;15.90;;;9.52;;
24813;SDS011;12904;50.088;11.414;2022-10-23T01:04:19;12.38;;;9.57;;
24813;SDS011;12904;50.088;11.414;2022-10-23T01:06:49;14.98;;;10.02;;
24813;SDS011;12904;50.088;11.414;2022-10-23T01:11:58;10.50;;;9.45;;
24813;SDS011;12904;50.088;11.414;2022-10-23T01:14:42;11.20;;;10.10;;
24813;SDS011;12904;50.088;11.414;2022-10-23T01:28:24;18.33;;;10.88;;
24813;SDS011;12904;50.088;11.414;2022-10-23T01:30:53;10.82;;;9.73;;
24813;SDS011;12904;50.088;11.414;2022-10-23T01:33:24;11.10;;;10.00;;
24813;SDS011;12904;50.088;11.414;2022-10-23T01:35:52;11.07;;;8.70;;
24813;SDS011;12904;50.088;11.414;2022-10-23T01:41:15;10.57;;;9.67;;
24813;SDS011;12904;50.088;11.414;2022-10-23T01:43:45;11.05;;;9.77;;
24813;SDS011;12904;50.088;11.414;2022-10-23T01:46:16;10.68;;;9.57;;
24813;SDS011;12904;50.088;11.414;2022-10-23T01:48:45;12.55;;;9.07;;
24813;SDS011;12904;50.088;11.414;2022-10-23T01:51:15;11.23;;;10.13;;
24813;SDS011;12904;50.088;11.414;2022-10-23T01:53:43;9.23;;;8.35;;
24813;SDS011;12904;50.088;11.414;2022-10-23T01:56:13;8.73;;;7.93;;
24813;SDS011;12904;50.088;11.414;2022-10-23T01:58:43;16.60;;;9.45;;
24813;SDS011;12904;50.088;11.414;2022-10-23T02:01:12;9.65;;;8.77;;
24813;SDS011;12904;50.088;11.414;2022-10-23T02:03:39;10.13;;;9.20;;
24813;SDS011;12904;50.088;11.414;2022-10-23T02:06:07;13.00;;;8.55;;
24813;SDS011;12904;50.088;11.414;2022-10-23T02:08:33;11.00;;;8.80;;
24813;SDS011;12904;50.088;11.414;2022-10-23T02:11:02;11.25;;;8.95;;
24813;SDS011;12904;50.088;11.414;2022-10-23T02:13:33;9.85;;;9.00;;
24813;SDS011;12904;50.088;11.414;2022-10-23T02:16:05;10.18;;;9.18;;
24813;SDS011;12904;50.088;11.414;2022-10-23T02:18:43;9.27;;;8.48;;
24813;SDS011;12904;50.088;11.414;2022-10-23T02:21:17;14.30;;;8.32;;
24813;SDS011;12904;50.088;11.414;2022-10-23T02:24:03;9.15;;;8.35;;
24813;SDS011;12904;50.088;11.414;2022-10-23T02:26:35;9.50;;;8.60;;
24813;SDS011;12904;50.088;11.414;2022-10-23T02:31:48;8.70;;;8.00;;
24813;SDS011;12904;50.088;11.414;2022-10-23T02:34:14;8.35;;;7.70;;
24813;SDS011;12904;50.088;11.414;2022-10-23T02:36:40;9.45;;;8.52;;
24813;SDS011;12904;50.088;11.414;2022-10-23T02:39:05;11.68;;;8.93;;
24813;SDS011;12904;50.088;11.414;2022-10-23T02:44:06;9.48;;;8.57;;
24813;SDS011;12904;50.088;11.414;2022-10-23T02:51:43;17.45;;;11.75;;
24813;SDS011;12904;50.088;11.414;2022-10-23T02:57:06;12.73;;;11.52;;
24813;SDS011;12904;50.088;11.414;2022-10-23T02:59:46;14.80;;;12.25;;
24813;SDS011;12904;50.088;11.414;2022-10-23T03:02:24;15.80;;;13.15;;
24813;SDS011;12904;50.088;11.414;2022-10-23T03:05:01;22.17;;;15.95;;
24813;SDS011;12904;50.088;11.414;2022-10-23T03:07:28;24.63;;;15.90;;
24813;SDS011;12904;50.088;11.414;2022-10-23T03:09:54;20.42;;;14.77;;
24813;SDS011;12904;50.088;11.414;2022-10-23T03:12:20;20.17;;;15.02;;
24813;SDS011;12904;50.088;11.414;2022-10-23T03:14:45;17.83;;;15.52;;
24813;SDS011;12904;50.088;11.414;2022-10-23T03:17:11;17.48;;;14.02;;
24813;SDS011;12904;50.088;11.414;2022-10-23T03:19:37;29.45;;;17.35;;
24813;SDS011;12904;50.088;11.414;2022-10-23T03:22:02;39.90;;;19.85;;
24813;SDS011;12904;50.088;11.414;2022-10-23T03:24:28;35.30;;;17.58;;
24813;SDS011;12904;50.088;11.414;2022-10-23T03:26:53;25.20;;;16.27;;
24813;SDS011;12904;50.088;11.414;2022-10-23T03:29:19;17.65;;;13.30;;
24813;SDS011;12904;50.088;11.414;2022-10-23T03:31:45;18.42;;;12.60;;
24813;SDS011;12904;50.088;11.414;2022-10-23T03:34:10;15.10;;;13.18;;
24813;SDS011;12904;50.088;11.414;2022-10-23T03:36:37;14.13;;;10.77;;
24813;SDS011;12904;50.088;11.414;2022-10-23T03:39:03;11.65;;;10.30;;
24813;SDS011;12904;50.088;11.414;2022-10-23T03:41:29;11.32;;;10.15;;
24813;SDS011;12904;50.088;11.414;2022-10-23T03:43:55;9.82;;;8.82;;
24813;SDS011;12904;50.088;11.414;2022-10-23T03:46:21;10.95;;;8.68;;
24813;SDS011;12904;50.088;11.414;2022-10-23T03:48:47;11.35;;;9.75;;
24813;SDS011;12904;50.088;11.414;2022-10-23T03:51:13;18.17;;;10.90;;
24813;SDS011;12904;50.088;11.414;2022-10-23T03:53:38;21.50;;;14.57;;
24813;SDS011;12904;50.088;11.414;2022-10-23T03:56:04;23.40;;;14.48;;
24813;SDS011;12904;50.088;11.414;2022-10-23T03:58:30;27.52;;;16.42;;
24813;SDS011;12904;50.088;11.414;2022-10-23T04:00:56;29.77;;;15.82;;
24813;SDS011;12904;50.088;11.414;2022-10-23T04:03:21;19.33;;;14.00;;
24813;SDS011;12904;50.088;11.414;2022-10-23T04:05:47;30.40;;;16.48;;
24813;SDS011;12904;50.088;11.414;2022-10-23T04:08:13;20.95;;;13.57;;
24813;SDS011;12904;50.088;11.414;2022-10-23T04:10:38;17.45;;;11.05;;
24813;SDS011;12904;50.088;11.414;2022-10-23T04:13:04;13.95;;;11.20;;
24813;SDS011;12904;50.088;11.414;2022-10-23T04:15:30;26.02;;;14.45;;
24813;SDS011;12904;50.088;11.414;2022-10-23T04:17:55;22.58;;;14.38;;
24813;SDS011;12904;50.088;11.414;2022-10-23T04:20:21;14.70;;;10.98;;
24813;SDS011;12904;50.088;11.414;2022-10-23T04:22:46;24.05;;;15.65;;
24813;SDS011;12904;50.088;11.414;2022-10-23T04:25:12;22.63;;;14.90;;
24813;SDS011;12904;50.088;11.414;2022-10-23T04:27:40;24.27;;;16.90;;
24813;SDS011;12904;50.088;11.414;2022-10-23T04:30:06;26.33;;;17.20;;
24813;SDS011;12904;50.088;11.414;2022-10-23T04:32:32;26.02;;;17.17;;
24813;SDS011;12904;50.088;11.414;2022-10-23T04:34:58;29.45;;;20.08;;
24813;SDS011;12904;50.088;11.414;2022-10-23T04:37:24;26.90;;;23.98;;
24813;SDS011;12904;50.088;11.414;2022-10-23T04:39:50;22.05;;;19.77;;
24813;SDS011;12904;50.088;11.414;2022-10-23T04:42:16;19.70;;;16.48;;
24813;SDS011;12904;50.088;11.414;2022-10-23T04:44:41;17.15;;;13.95;;
24813;SDS011;12904;50.088;11.414;2022-10-23T04:47:07;18.42;;;14.10;;
24813;SDS011;12904;50.088;11.414;2022-10-23T04:49:32;16.75;;;14.52;;
24813;SDS011;12904;50.088;11.414;2022-10-23T04:51:58;29.33;;;18.20;;
24813;SDS011;12904;50.088;11.414;2022-10-23T04:54:23;53.03;;;22.75;;
24813;SDS011;12904;50.088;11.414;2022-10-23T04:56:49;53.72;;;24.95;;
24813;SDS011;12904;50.088;11.414;2022-10-23T04:59:15;74.18;;;28.05;;
24813;SDS011;12904;50.088;11.414;2022-10-23T05:01:40;69.60;;;28.15;;
24813;SDS011;12904;50.088;11.414;2022-10-23T05:04:06;84.93;;;29.88;;
24813;SDS011;12904;50.088;11.414;2022-10-23T05:06:32;84.47;;;31.25;;
24813;SDS011;12904;50.088;11.414;2022-10-23T05:08:57;86.07;;;31.83;;
24813;SDS011;12904;50.088;11.414;2022-10-23T05:11:23;75.07;;;31.27;;
24813;SDS011;12904;50.088;11.414;2022-10-23T05:13:49;82.65;;;31.17;;
24813;SDS011;12904;50.088;11.414;2022-10-23T05:19:06;71.00;;;30.35;;
24813;SDS011;12904;50.088;11.414;2022-10-23T05:21:36;85.50;;;30.92;;
24813;SDS011;12904;50.088;11.414;2022-10-23T05:24:03;75.10;;;29.83;;
24813;SDS011;12904;50.088;11.414;2022-10-23T05:26:30;76.75;;;28.80;;
24813;SDS011;12904;50.088;11.414;2022-10-23T05:28:56;77.03;;;30.27;;
24813;SDS011;12904;50.088;11.414;2022-10-23T05:31:22;63.40;;;27.38;;
24813;SDS011;12904;50.088;11.414;2022-10-23T05:33:50;66.93;;;27.08;;
24813;SDS011;12904;50.088;11.414;2022-10-23T05:36:17;59.53;;;24.92;;
24813;SDS011;12904;50.088;11.414;2022-10-23T05:38:42;65.95;;;26.52;;
24813;SDS011;12904;50.088;11.414;2022-10-23T05:41:09;61.83;;;25.48;;
24813;SDS011;12904;50.088;11.414;2022-10-23T05:43:35;51.58;;;23.50;;
24813;SDS011;12904;50.088;11.414;2022-10-23T05:46:04;49.47;;;23.38;;
24813;SDS011;12904;50.088;11.414;2022-10-23T05:48:31;45.22;;;22.83;;
24813;SDS011;12904;50.088;11.414;2022-10-23T05:51:08;51.15;;;24.13;;
24813;SDS011;12904;50.088;11.414;2022-10-23T05:53:35;46.65;;;22.42;;
24813;SDS011;12904;50.088;11.414;2022-10-23T05:56:05;46.05;;;24.38;;
24813;SDS011;12904;50.088;11.414;2022-10-23T05:58:31;44.45;;;23.70;;
24813;SDS011;12904;50.088;11.414;2022-10-23T06:00:57;46.78;;;23.83;;
24813;SDS011;12904;50.088;11.414;2022-10-23T06:03:23;45.63;;;22.23;;
24813;SDS011;12904;50.088;11.414;2022-10-23T06:05:49;38.60;;;21.52;;
24813;SDS011;12904;50.088;11.414;2022-10-23T06:08:15;43.80;;;22.10;;
24813;SDS011;12904;50.088;11.414;2022-10-23T06:10:42;36.88;;;22.00;;
24813;SDS011;12904;50.088;11.414;2022-10-23T06:13:08;35.33;;;21.33;;
24813;SDS011;12904;50.088;11.414;2022-10-23T06:15:33;36.30;;;20.75;;
24813;SDS011;12904;50.088;11.414;2022-10-23T06:18:02;30.27;;;19.70;;
24813;SDS011;12904;50.088;11.414;2022-10-23T06:20:28;32.75;;;21.35;;
24813;SDS011;12904;50.088;11.414;2022-10-23T06:22:54;27.75;;;19.65;;
24813;SDS011;12904;50.088;11.414;2022-10-23T06:25:20;29.15;;;20.05;;
24813;SDS011;12904;50.088;11.414;2022-10-23T06:27:46;32.08;;;20.23;;
24813;SDS011;12904;50.088;11.414;2022-10-23T06:30:11;30.85;;;20.02;;
24813;SDS011;12904;50.088;11.414;2022-10-23T06:32:37;30.50;;;19.35;;
24813;SDS011;12904;50.088;11.414;2022-10-23T06:35:03;30.33;;;19.35;;
24813;SDS011;12904;50.088;11.414;2022-10-23T06:37:29;24.50;;;17.77;;
24813;SDS011;12904;50.088;11.414;2022-10-23T06:39:58;24.70;;;19.10;;
24813;SDS011;12904;50.088;11.414;2022-10-23T06:42:23;26.23;;;17.45;;
24813;SDS011;12904;50.088;11.414;2022-10-23T06:44:49;26.98;;;19.38;;
24813;SDS011;12904;50.088;11.414;2022-10-23T06:47:15;21.52;;;17.85;;
24813;SDS011;12904;50.088;11.414;2022-10-23T06:49:40;22.80;;;18.23;;
24813;SDS011;12904;50.088;11.414;2022-10-23T06:52:06;26.92;;;18.48;;
24813;SDS011;12904;50.088;11.414;2022-10-23T06:54:32;23.50;;;18.33;;
24813;SDS011;12904;50.088;11.414;2022-10-23T06:56:57;24.50;;;17.65;;
24813;SDS011;12904;50.088;11.414;2022-10-23T06:59:23;19.48;;;17.00;;
24813;SDS011;12904;50.088;11.414;2022-10-23T07:01:49;21.70;;;17.15;;
24813;SDS011;12904;50.088;11.414;2022-10-23T07:04:14;25.63;;;18.50;;
24813;SDS011;12904;50.088;11.414;2022-10-23T07:06:40;18.40;;;16.52;;
24813;SDS011;12904;50.088;11.414;2022-10-23T07:09:07;20.52;;;17.02;;
24813;SDS011;12904;50.088;11.414;2022-10-23T07:11:33;26.83;;;17.33;;
24813;SDS011;12904;50.088;11.414;2022-10-23T07:13:58;24.40;;;16.60;;
24813;SDS011;12904;50.088;11.414;2022-10-23T07:16:24;18.88;;;16.48;;
24813;SDS011;12904;50.088;11.414;2022-10-23T07:18:54;19.20;;;16.52;;
24813;SDS011;12904;50.088;11.414;2022-10-23T07:21:33;21.15;;;15.20;;
24813;SDS011;12904;50.088;11.414;2022-10-23T07:24:00;18.17;;;15.35;;
24813;SDS011;12904;50.088;11.414;2022-10-23T07:26:26;16.67;;;15.07;;
24813;SDS011;12904;50.088;11.414;2022-10-23T07:28:52;17.35;;;15.02;;
24813;SDS011;12904;50.088;11.414;2022-10-23T07:31:21;15.82;;;14.23;;
24813;SDS011;12904;50.088;11.414;2022-10-23T07:33:47;17.60;;;15.57;;
24813;SDS011;12904;50.088;11.414;2022-10-23T07:36:13;17.30;;;14.98;;
24813;SDS011;12904;50.088;11.414;2022-10-23T07:38:39;17.67;;;15.30;;
24813;SDS011;12904;50.088;11.414;2022-10-23T07:41:05;17.58;;;15.43;;
24813;SDS011;12904;50.088;11.414;2022-10-23T07:43:31;15.70;;;14.27;;
24813;SDS011;12904;50.088;11.414;2022-10-23T07:45:57;17.08;;;15.02;;
24813;SDS011;12904;50.088;11.414;2022-10-23T07:48:23;14.73;;;13.30;;
24813;SDS011;12904;50.088;11.414;2022-10-23T07:50:51;14.35;;;12.95;;
24813;SDS011;12904;50.088;11.414;2022-10-23T07:53:18;15.00;;;13.68;;
24813;SDS011;12904;50.088;11.414;2022-10-23T07:55:58;12.65;;;11.50;;
24813;SDS011;12904;50.088;11.414;2022-10-23T07:58:25;12.32;;;10.90;;
24813;SDS011;12904;50.088;11.414;2022-10-23T08:00:56;12.73;;;11.52;;
24813;SDS011;12904;50.088;11.414;2022-10-23T08:03:27;13.15;;;11.95;;
24813;SDS011;12904;50.088;11.414;2022-10-23T08:05:55;11.85;;;10.75;;
24813;SDS011;12904;50.088;11.414;2022-10-23T08:08:21;15.48;;;13.20;;
24813;SDS011;12904;50.088;11.414;2022-10-23T08:10:48;12.77;;;11.63;;
24813;SDS011;12904;50.088;11.414;2022-10-23T08:13:15;14.73;;;13.48;;
24813;SDS011;12904;50.088;11.414;2022-10-23T08:15:44;13.70;;;12.50;;
24813;SDS011;12904;50.088;11.414;2022-10-23T08:18:10;13.75;;;12.60;;
24813;SDS011;12904;50.088;11.414;2022-10-23T08:20:40;13.55;;;12.25;;
24813;SDS011;12904;50.088;11.414;2022-10-23T08:23:06;12.75;;;11.73;;
24813;SDS011;12904;50.088;11.414;2022-10-23T08:25:33;13.18;;;12.10;;
24813;SDS011;12904;50.088;11.414;2022-10-23T08:27:59;13.43;;;12.15;;
24813;SDS011;12904;50.088;11.414;2022-10-23T08:30:25;13.82;;;12.63;;
24813;SDS011;12904;50.088;11.414;2022-10-23T08:32:52;14.88;;;13.52;;
24813;SDS011;12904;50.088;11.414;2022-10-23T08:35:17;14.07;;;12.85;;
24813;SDS011;12904;50.088;11.414;2022-10-23T08:37:43;13.82;;;12.65;;
24813;SDS011;12904;50.088;11.414;2022-10-23T08:40:21;14.05;;;12.63;;
24813;SDS011;12904;50.088;11.414;2022-10-23T08:42:52;13.07;;;11.90;;
24813;SDS011;12904;50.088;11.414;2022-10-23T08:45:44;13.50;;;12.38;;
24813;SDS011;12904;50.088;11.414;2022-10-23T08:51:03;12.48;;;11.32;;
24813;SDS011;12904;50.088;11.414;2022-10-23T08:53:49;12.55;;;11.45;;
24813;SDS011;12904;50.088;11.414;2022-10-23T08:56:23;9.65;;;8.75;;
24813;SDS011;12904;50.088;11.414;2022-10-23T09:04:15;10.63;;;9.63;;
24813;SDS011;12904;50.088;11.414;2022-10-23T09:12:20;9.30;;;8.48;;
24813;SDS011;12904;50.088;11.414;2022-10-23T09:17:54;8.00;;;7.30;;
24813;SDS011;12904;50.088;11.414;2022-10-23T09:20:24;9.18;;;8.23;;
24813;SDS011;12904;50.088;11.414;2022-10-23T09:22:57;7.55;;;6.93;;
24813;SDS011;12904;50.088;11.414;2022-10-23T09:25:29;7.70;;;6.85;;
24813;SDS011;12904;50.088;11.414;2022-10-23T09:27:58;7.32;;;6.68;;
24813;SDS011;12904;50.088;11.414;2022-10-23T09:32:53;7.18;;;6.60;;
24813;SDS011;12904;50.088;11.414;2022-10-23T09:35:22;7.30;;;6.60;;
24813;SDS011;12904;50.088;11.414;2022-10-23T09:37:49;7.38;;;6.78;;
24813;SDS011;12904;50.088;11.414;2022-10-23T09:42:51;14.07;;;6.50;;
24813;SDS011;12904;50.088;11.414;2022-10-23T09:45:20;7.55;;;6.95;;
24813;SDS011;12904;50.088;11.414;2022-10-23T09:50:50;7.00;;;6.40;;
24813;SDS011;12904;50.088;11.414;2022-10-23T09:53:16;7.72;;;7.13;;
24813;SDS011;12904;50.088;11.414;2022-10-23T09:55:55;9.23;;;8.27;;
24813;SDS011;12904;50.088;11.414;2022-10-23T09:58:30;8.43;;;7.40;;
24813;SDS011;12904;50.088;11.414;2022-10-23T10:00:59;7.55;;;6.95;;
24813;SDS011;12904;50.088;11.414;2022-10-23T10:03:25;16.83;;;7.40;;
24813;SDS011;12904;50.088;11.414;2022-10-23T10:05:55;12.68;;;7.75;;
24813;SDS011;12904;50.088;11.414;2022-10-23T10:08:43;9.02;;;7.22;;
24813;SDS011;12904;50.088;11.414;2022-10-23T10:11:19;7.90;;;7.20;;
24813;SDS011;12904;50.088;11.414;2022-10-23T10:13:53;8.70;;;8.00;;
24813;SDS011;12904;50.088;11.414;2022-10-23T10:27:42;7.65;;;6.70;;
24813;SDS011;12904;50.088;11.414;2022-10-23T10:30:21;6.15;;;5.50;;
24813;SDS011;12904;50.088;11.414;2022-10-23T10:33:03;9.77;;;5.35;;
24813;SDS011;12904;50.088;11.414;2022-10-23T10:40:58;8.13;;;6.20;;
24813;SDS011;12904;50.088;11.414;2022-10-23T10:46:20;6.07;;;5.53;;
24813;SDS011;12904;50.088;11.414;2022-10-23T10:48:51;6.25;;;5.72;;
24813;SDS011;12904;50.088;11.414;2022-10-23T10:56:44;5.72;;;5.22;;
24813;SDS011;12904;50.088;11.414;2022-10-23T10:59:19;7.72;;;5.80;;
24813;SDS011;12904;50.088;11.414;2022-10-23T11:01:58;5.77;;;5.27;;
24813;SDS011;12904;50.088;11.414;2022-10-23T11:04:44;5.80;;;5.13;;
24813;SDS011;12904;50.088;11.414;2022-10-23T11:07:11;5.30;;;4.88;;
24813;SDS011;12904;50.088;11.414;2022-10-23T11:09:42;5.15;;;4.75;;
24813;SDS011;12904;50.088;11.414;2022-10-23T11:12:16;6.65;;;4.93;;
24813;SDS011;12904;50.088;11.414;2022-10-23T11:14:44;6.72;;;4.78;;
24813;SDS011;12904;50.088;11.414;2022-10-23T11:17:14;6.50;;;5.47;;
24813;SDS011;12904;50.088;11.414;2022-10-23T11:19:46;5.32;;;4.93;;
24813;SDS011;12904;50.088;11.414;2022-10-23T11:22:44;5.95;;;5.28;;
24813;SDS011;12904;50.088;11.414;2022-10-23T11:28:26;5.50;;;4.70;;
24813;SDS011;12904;50.088;11.414;2022-10-23T11:38:32;5.43;;;4.93;;
24813;SDS011;12904;50.088;11.414;2022-10-23T11:41:00;7.95;;;4.43;;
24813;SDS011;12904;50.088;11.414;2022-10-23T11:48:47;5.18;;;4.28;;
24813;SDS011;12904;50.088;11.414;2022-10-23T12:01:56;5.55;;;4.30;;
24813;SDS011;12904;50.088;11.414;2022-10-23T12:04:31;8.55;;;4.20;;
24813;SDS011;12904;50.088;11.414;2022-10-23T12:07:14;5.35;;;4.88;;
24813;SDS011;12904;50.088;11.414;2022-10-23T12:09:51;6.03;;;4.60;;
24813;SDS011;12904;50.088;11.414;2022-10-23T12:14:52;7.22;;;4.28;;
24813;SDS011;12904;50.088;11.414;2022-10-23T12:19:47;5.95;;;3.53;;
24813;SDS011;12904;50.088;11.414;2022-10-23T12:22:18;5.50;;;3.28;;
24813;SDS011;12904;50.088;11.414;2022-10-23T12:30:44;3.60;;;3.30;;
24813;SDS011;12904;50.088;11.414;2022-10-23T12:38:49;3.38;;;3.08;;
24813;SDS011;12904;50.088;11.414;2022-10-23T12:41:16;2.95;;;2.70;;
24813;SDS011;12904;50.088;11.414;2022-10-23T12:44:02;3.28;;;2.35;;
24813;SDS011;12904;50.088;11.414;2022-10-23T12:46:38;4.00;;;2.25;;
24813;SDS011;12904;50.088;11.414;2022-10-23T12:49:15;5.70;;;2.35;;
24813;SDS011;12904;50.088;11.414;2022-10-23T12:51:43;2.35;;;1.98;;
24813;SDS011;12904;50.088;11.414;2022-10-23T12:54:16;2.85;;;1.90;;
24813;SDS011;12904;50.088;11.414;2022-10-23T12:56:43;4.30;;;2.40;;
24813;SDS011;12904;50.088;11.414;2022-10-23T12:59:16;2.67;;;1.80;;
24813;SDS011;12904;50.088;11.414;2022-10-23T13:01:56;3.55;;;1.90;;
24813;SDS011;12904;50.088;11.414;2022-10-23T13:06:53;3.80;;;1.92;;
24813;SDS011;12904;50.088;11.414;2022-10-23T13:09:22;2.00;;;1.63;;
24813;SDS011;12904;50.088;11.414;2022-10-23T13:11:52;2.10;;;1.80;;
24813;SDS011;12904;50.088;11.414;2022-10-23T13:14:39;3.42;;;1.70;;
24813;SDS011;12904;50.088;11.414;2022-10-23T13:17:08;1.75;;;1.60;;
24813;SDS011;12904;50.088;11.414;2022-10-23T13:19:35;3.85;;;1.40;;
24813;SDS011;12904;50.088;11.414;2022-10-23T13:22:02;2.47;;;1.45;;
24813;SDS011;12904;50.088;11.414;2022-10-23T13:24:38;5.55;;;1.40;;
24813;SDS011;12904;50.088;11.414;2022-10-23T13:27:19;3.15;;;1.50;;
24813;SDS011;12904;50.088;11.414;2022-10-23T13:29:54;2.80;;;1.48;;
24813;SDS011;12904;50.088;11.414;2022-10-23T13:32:24;1.45;;;1.20;;
24813;SDS011;12904;50.088;11.414;2022-10-23T13:34:53;4.40;;;1.65;;
24813;SDS011;12904;50.088;11.414;2022-10-23T13:39:58;1.52;;;1.13;;
24813;SDS011;12904;50.088;11.414;2022-10-23T13:42:24;2.83;;;1.13;;
24813;SDS011;12904;50.088;11.414;2022-10-23T13:44:50;1.15;;;1.00;;
24813;SDS011;12904;50.088;11.414;2022-10-23T13:47:16;2.28;;;1.20;;
24813;SDS011;12904;50.088;11.414;2022-10-23T13:49:41;1.83;;;1.05;;
24813;SDS011;12904;50.088;11.414;2022-10-23T13:52:08;2.17;;;1.00;;
24813;SDS011;12904;50.088;11.414;2022-10-23T13:54:36;2.10;;;1.10;;
24813;SDS011;12904;50.088;11.414;2022-10-23T13:57:02;1.55;;;1.00;;
24813;SDS011;12904;50.088;11.414;2022-10-23T13:59:28;1.48;;;1.15;;
24813;SDS011;12904;50.088;11.414;2022-10-23T14:01:54;1.60;;;0.90;;
24813;SDS011;12904;50.088;11.414;2022-10-23T14:04:20;1.30;;;1.13;;
24813;SDS011;12904;50.088;11.414;2022-10-23T14:06:46;2.80;;;1.10;;
24813;SDS011;12904;50.088;11.414;2022-10-23T14:09:14;2.95;;;1.00;;
24813;SDS011;12904;50.088;11.414;2022-10-23T14:11:41;3.58;;;1.00;;
24813;SDS011;12904;50.088;11.414;2022-10-23T14:14:08;2.08;;;0.98;;
24813;SDS011;12904;50.088;11.414;2022-10-23T14:16:33;3.42;;;1.10;;
24813;SDS011;12904;50.088;11.414;2022-10-23T14:18:59;1.42;;;0.93;;
24813;SDS011;12904;50.088;11.414;2022-10-23T14:21:25;3.17;;;0.90;;
24813;SDS011;12904;50.088;11.414;2022-10-23T14:23:51;1.70;;;1.33;;
24813;SDS011;12904;50.088;11.414;2022-10-23T14:26:19;2.45;;;1.10;;
24813;SDS011;12904;50.088;11.414;2022-10-23T14:28:47;4.88;;;0.93;;
24813;SDS011;12904;50.088;11.414;2022-10-23T14:31:16;4.20;;;1.38;;
24813;SDS011;12904;50.088;11.414;2022-10-23T14:33:42;3.30;;;1.20;;
24813;SDS011;12904;50.088;11.414;2022-10-23T14:36:09;1.50;;;1.00;;
24813;SDS011;12904;50.088;11.414;2022-10-23T14:38:34;1.65;;;1.15;;
24813;SDS011;12904;50.088;11.414;2022-10-23T14:41:00;1.60;;;1.02;;
24813;SDS011;12904;50.088;11.414;2022-10-23T14:43:26;2.17;;;1.10;;
24813;SDS011;12904;50.088;11.414;2022-10-23T14:45:52;2.10;;;1.05;;
24813;SDS011;12904;50.088;11.414;2022-10-23T14:48:18;2.75;;;1.10;;
24813;SDS011;12904;50.088;11.414;2022-10-23T14:50:44;1.27;;;1.00;;
24813;SDS011;12904;50.088;11.414;2022-10-23T14:53:12;2.53;;;1.30;;
24813;SDS011;12904;50.088;11.414;2022-10-23T14:55:39;1.10;;;0.93;;
24813;SDS011;12904;50.088;11.414;2022-10-23T14:58:04;1.60;;;1.50;;
24813;SDS011;12904;50.088;11.414;2022-10-23T15:00:30;1.63;;;1.10;;
24813;SDS011;12904;50.088;11.414;2022-10-23T15:02:55;1.50;;;1.00;;
24813;SDS011;12904;50.088;11.414;2022-10-23T15:05:21;1.40;;;1.20;;
24813;SDS011;12904;50.088;11.414;2022-10-23T15:07:47;3.63;;;1.20;;
24813;SDS011;12904;50.088;11.414;2022-10-23T15:10:12;2.97;;;1.00;;
24813;SDS011;12904;50.088;11.414;2022-10-23T15:12:38;3.55;;;1.30;;
24813;SDS011;12904;50.088;11.414;2022-10-23T15:15:04;1.42;;;1.33;;
24813;SDS011;12904;50.088;11.414;2022-10-23T15:17:31;2.00;;;1.10;;
24813;SDS011;12904;50.088;11.414;2022-10-23T15:19:58;2.22;;;1.20;;
24813;SDS011;12904;50.088;11.414;2022-10-23T15:22:24;2.47;;;1.13;;
24813;SDS011;12904;50.088;11.414;2022-10-23T15:24:50;2.80;;;1.25;;
24813;SDS011;12904;50.088;11.414;2022-10-23T15:27:16;4.80;;;1.20;;
24813;SDS011;12904;50.088;11.414;2022-10-23T15:29:42;1.58;;;1.08;;
24813;SDS011;12904;50.088;11.414;2022-10-23T15:32:08;1.30;;;1.00;;
24813;SDS011;12904;50.088;11.414;2022-10-23T15:34:34;1.50;;;1.10;;
24813;SDS011;12904;50.088;11.414;2022-10-23T15:37:01;2.53;;;1.40;;
24813;SDS011;12904;50.088;11.414;2022-10-23T15:39:28;2.53;;;1.48;;
24813;SDS011;12904;50.088;11.414;2022-10-23T15:41:59;2.30;;;1.30;;
24813;SDS011;12904;50.088;11.414;2022-10-23T15:44:27;1.40;;;1.05;;
24813;SDS011;12904;50.088;11.414;2022-10-23T15:46:53;1.33;;;1.20;;
24813;SDS011;12904;50.088;11.414;2022-10-23T15:49:21;1.38;;;1.00;;
24813;SDS011;12904;50.088;11.414;2022-10-23T15:51:47;1.40;;;1.30;;
24813;SDS011;12904;50.088;11.414;2022-10-23T15:54:13;4.90;;;1.20;;
24813;SDS011;12904;50.088;11.414;2022-10-23T15:56:42;3.78;;;1.42;;
24813;SDS011;12904;50.088;11.414;2022-10-23T15:59:13;1.83;;;1.10;;
24813;SDS011;12904;50.088;11.414;2022-10-23T16:01:39;1.40;;;1.17;;
24813;SDS011;12904;50.088;11.414;2022-10-23T16:04:05;1.45;;;1.30;;
24813;SDS011;12904;50.088;11.414;2022-10-23T16:06:31;2.25;;;1.40;;
24813;SDS011;12904;50.088;11.414;2022-10-23T16:08:56;2.03;;;1.80;;
24813;SDS011;12904;50.088;11.414;2022-10-23T16:11:23;1.30;;;1.10;;
24813;SDS011;12904;50.088;11.414;2022-10-23T16:13:54;3.85;;;1.30;;
24813;SDS011;12904;50.088;11.414;2022-10-23T16:16:20;3.70;;;1.67;;
24813;SDS011;12904;50.088;11.414;2022-10-23T16:18:46;7.78;;;1.38;;
24813;SDS011;12904;50.088;11.414;2022-10-23T16:21:15;2.95;;;1.77;;
24813;SDS011;12904;50.088;11.414;2022-10-23T16:23:43;3.63;;;1.80;;
24813;SDS011;12904;50.088;11.414;2022-10-23T16:26:09;2.13;;;1.70;;
24813;SDS011;12904;50.088;11.414;2022-10-23T16:28:34;3.78;;;2.25;;
24813;SDS011;12904;50.088;11.414;2022-10-23T16:31:01;4.03;;;1.70;;
24813;SDS011;12904;50.088;11.414;2022-10-23T16:33:31;3.20;;;1.70;;
24813;SDS011;12904;50.088;11.414;2022-10-23T16:36:00;2.40;;;1.77;;
24813;SDS011;12904;50.088;11.414;2022-10-23T16:38:30;3.80;;;2.00;;
24813;SDS011;12904;50.088;11.414;2022-10-23T16:40:56;4.60;;;1.92;;